Terminal Aerodrome Forecast
Issued by NWS

Home | Current Version | Previous Version | Text Only | Print | Product List | Glossary On
Versions: 1 2 3 4 5 6 7 8 9 10 11 12 13
000
FTUS41 KBTV 252321
TAFMPV
TAF
KMPV 252321Z 2600/2624 18006KT P6SM VCSH OVC080
     FM260900 21010KT P6SM SCT050
     FM261500 25011G19KT P6SM SCT050=

USA.gov is the U.S. government's official web portal to all federal, state and local government web resources and services.